Terminal Aerodrome Forecast
Issued by NWS

Home | Current Version | Previous Version | Text Only | Print | Product List | Glossary On
Versions: 1 2 3 4 5 6 7 8 9 10 11 12 13 14 15 16 17 18 19 20 21 22 23 24 25 26 27 28
208
FTAK31 PAFA 241123
TAFAOT
TAF
PAOT 241123Z 2412/2512 01003KT P6SM SCT150
     FM242200 05008KT P6SM VCSH SCT040 BKN080 BKN150
     FM250200 07008KT 5SM -SN BR BKN040 OVC080=

USA.gov is the U.S. government's official web portal to all federal, state and local government web resources and services.